Latest Weather Observations for Kanagulk

IDV60801

Issued at 6:42 pm EDT Sunday 28 February 2021 (issued every 10 minutes, with the page automatically refreshed every 10 minutes)

About weather observations | Map of weather stations | Latest weather observations for VIC | Other Formats
Station Details ID: 079097 Name: KANAGULK Lat: -37.12 Lon: 141.80 Height: 188.8 m
Data from the previous 72 hours. | See also: Recent months at Kanagulk
Date/Time
EDT
Temp
°C
App
Temp
°C
Dew
Point
°C
Rel
Hum
%
Delta-T
°C
Wind Press
QNH
hPa
Press
MSL
hPa
Rain since
9am
mm
Dir  Spd
km/h
Gust
km/h
Spd
kts
Gust
kts
28/06:30pm 27.2 23.6 4.9 24 11.5 W 13 22 7 12 1009.3 1008.6 0.0
28/06:00pm 27.3 22.9 5.0 24 11.5 W 17 32 9 17 1009.0 1008.3 0.0
28/05:30pm 28.5 24.9 6.6 25 11.7 WSW 15 26 8 14 1008.8 1008.1 0.0
28/05:00pm 28.4 25.0 5.9 24 11.9 W 13 20 7 11 1008.9 1008.2 0.0
28/04:30pm 28.7 24.3 4.9 22 12.4 WNW 17 28 9 15 1008.9 1008.2 0.0
28/04:00pm 30.0 26.4 6.6 23 12.6 WNW 15 28 8 15 1009.1 1008.4 0.0
28/03:30pm 29.2 24.7 6.0 23 12.3 WNW 19 32 10 17 1009.2 1008.5 0.0
28/03:00pm 29.0 25.2 5.8 23 12.3 WNW 15 28 8 15 1009.5 1008.8 0.0
28/02:30pm 29.7 25.2 7.0 24 12.3 NW 20 33 11 18 1009.9 1009.2 0.0
28/02:00pm 28.1 24.1 6.8 26 11.4 NW 17 32 9 17 1010.0 1009.3 0.0
28/01:30pm 27.8 24.0 6.0 25 11.5 NNW 15 28 8 15 1010.5 1009.8 0.0
28/01:00pm 28.0 24.5 7.3 27 11.2 N 15 24 8 13 1011.0 1010.3 0.0
28/12:30pm 26.6 23.5 7.1 29 10.4 N 13 24 7 13 1011.6 1011.0 0.0
28/12:00pm 24.3 21.0 6.6 32 9.2 N 13 19 7 10 1012.1 1011.5 0.0
28/11:30am 25.4 22.5 8.0 33 9.4 N 13 24 7 13 1012.3 1011.7 0.0
28/11:00am 23.5 19.6 7.2 35 8.6 N 17 26 9 14 1012.6 1012.0 0.0
28/10:30am 22.7 19.2 7.3 37 8.1 NNE 15 22 8 12 1012.7 1012.1 0.0
28/10:00am 20.5 16.9 8.2 45 6.5 N 17 20 9 11 1012.7 1012.1 0.0
28/09:30am 19.3 15.8 8.6 50 5.6 NNE 17 20 9 11 1012.4 1011.8 0.0
28/09:00am 15.3 13.5 9.4 68 3.1 NE 9 13 5 7 1012.3 1011.7 0.0
28/08:30am 12.5 11.6 9.3 81 1.6 E 4 7 2 4 1012.4 1011.8 0.0
28/08:00am 9.7 9.3 8.3 91 0.7 CALM 0 0 0 0 1012.2 1011.6 0.0
28/07:30am 8.4 7.4 7.5 94 0.4 ESE 2 7 1 4 1012.0 1011.4 0.0
28/07:00am 8.0 7.3 7.1 94 0.4 CALM 0 0 0 0 1011.8 1011.2 0.0
28/06:30am 7.6 6.8 6.7 94 0.4 CALM 0 0 0 0 1011.7 1011.1 0.0
28/06:00am 8.3 7.6 6.9 91 0.7 CALM 0 0 0 0 1011.6 1011.0 0.0
28/05:30am 8.7 8.1 7.3 91 0.7 CALM 0 0 0 0 1011.5 1010.8 0.0
28/05:00am 9.3 8.9 8.1 92 0.6 CALM 0 0 0 0 1011.7 1011.1 0.0
28/04:30am 9.1 8.6 8.0 93 0.5 CALM 0 0 0 0 1011.9 1011.3 0.0
28/04:00am 9.2 8.7 8.0 92 0.6 CALM 0 0 0 0 1011.9 1011.3 0.0
28/03:30am 9.4 8.8 7.5 88 0.9 CALM 0 0 0 0 1011.9 1011.3 0.0
28/03:00am 10.0 9.5 7.8 86 1.1 CALM 0 0 0 0 1011.8 1011.2 0.0
28/02:30am 10.3 8.7 8.1 86 1.1 S 6 9 3 5 1012.0 1011.4 0.0
28/02:00am 10.2 8.3 7.6 84 1.3 SE 7 9 4 5 1012.0 1011.4 0.0
28/01:30am 11.6 10.8 8.3 80 1.6 SE 2 7 1 4 1012.2 1011.6 0.0
28/01:00am 11.7 10.0 8.2 79 1.7 SE 7 9 4 5 1012.0 1011.4 0.0
28/12:30am 12.0 9.0 7.9 76 2.0 SSE 13 15 7 8 1012.0 1011.4 0.0
28/12:00am 12.8 9.6 8.3 74 2.3 SSE 15 19 8 10 1012.1 1011.5 0.0
 
Date/Time
EDT
Temp
°C
App
Temp
°C
Dew
Point
°C
Rel
Hum
%
Delta-T
°C
Wind Press
QNH
hPa
Press
MSL
hPa
Rain since
9am
mm
Dir  Spd
km/h
Gust
km/h
Spd
kts
Gust
kts
27/11:30pm 12.8 10.3 8.1 73 2.3 SSE 11 15 6 8 1012.6 1012.0 0.0
27/11:00pm 13.7 10.4 8.1 69 2.8 SSE 15 20 8 11 1012.5 1011.9 0.0
27/10:30pm 14.8 11.2 8.5 66 3.2 SSE 17 20 9 11 1012.7 1012.1 0.0
27/10:00pm 14.8 10.8 8.3 65 3.3 SSE 19 26 10 14 1012.6 1012.0 0.0
27/09:30pm 16.2 11.7 8.4 60 4.0 SSE 22 30 12 16 1012.4 1011.8 0.0
27/09:00pm 18.0 13.0 8.0 52 5.2 SSE 24 33 13 18 1011.9 1011.3 0.0
27/08:30pm 20.3 15.9 7.3 43 6.7 S 20 30 11 16 1011.5 1010.8 0.0
27/08:00pm 21.9 19.1 7.0 38 7.7 S 11 13 6 7 1011.1 1010.4 0.0
27/07:30pm 23.9 21.4 6.7 33 9.0 SW 9 15 5 8 1011.0 1010.3 0.0
27/07:00pm 24.7 22.3 6.9 32 9.4 SW 9 15 5 8 1010.8 1010.1 0.0
27/06:30pm 25.3 22.9 7.0 31 9.7 SW 9 15 5 8 1010.7 1010.0 0.0
27/06:00pm 24.5 22.4 6.7 32 9.3 NNW 7 15 4 8 1010.6 1009.9 0.0
27/05:30pm 24.8 22.0 7.0 32 9.4 SSW 11 19 6 10 1010.7 1010.0 0.0
27/05:00pm 24.5 21.9 7.6 34 9.0 SW 11 20 6 11 1011.1 1010.4 0.0
27/04:30pm 23.4 20.7 7.5 36 8.4 SW 11 20 6 11 1011.5 1010.8 0.0
27/04:00pm 23.0 20.7 7.5 37 8.2 W 9 17 5 9 1011.9 1011.3 0.0
27/03:30pm 22.8 20.1 7.4 37 8.1 WNW 11 22 6 12 1012.4 1011.8 0.0
27/03:00pm 21.8 19.0 6.9 38 7.7 W 11 20 6 11 1012.5 1011.9 0.0
27/02:30pm 21.1 18.4 7.3 41 7.2 WSW 11 17 6 9 1012.9 1012.3 0.0
27/02:00pm 20.4 17.5 6.7 41 7.0 W 11 17 6 9 1013.3 1012.6 0.0
27/01:30pm 19.4 17.4 7.2 45 6.2 WNW 7 13 4 7 1013.5 1012.8 0.0
27/01:00pm 18.8 17.0 7.3 47 5.9 WNW 6 11 3 6 1013.6 1012.9 0.0
27/12:30pm 17.3 14.9 6.8 50 5.3 NW 9 13 5 7 1014.0 1013.3 0.0
27/12:00pm 16.9 15.4 7.0 52 5.0 WNW 4 11 2 6 1014.1 1013.4 0.0
27/11:30am 16.6 15.3 7.5 55 4.6 NW 4 9 2 5 1014.3 1013.6 0.0
27/11:00am 15.6 14.6 7.4 58 4.1 N 2 9 1 5 1014.5 1013.8 0.0
27/10:30am 14.8 13.8 7.4 61 3.7 NNW 2 7 1 4 1014.5 1013.8 0.0
27/10:00am 14.5 13.8 7.1 61 3.7 CALM 0 7 0 4 1014.4 1013.7 0.0
27/09:30am 12.5 11.9 7.4 71 2.5 CALM 0 0 0 0 1014.3 1013.6 0.0
27/09:00am 10.9 9.9 7.4 79 1.7 S 2 6 1 3 1014.1 1013.4 0.0
27/08:30am 9.6 7.7 7.4 86 1.1 SSE 7 9 4 5 1013.8 1013.1 0.0
27/08:00am 7.5 6.7 6.3 92 0.6 CALM 0 0 0 0 1013.7 1013.0 0.0
27/07:30am 5.4 3.6 3.6 88 0.8 S 2 7 1 4 1013.3 1012.6 0.0
27/07:00am 6.7 5.3 5.3 91 0.6 SSE 2 7 1 4 1013.3 1012.6 0.0
27/06:30am 7.1 5.0 6.0 93 0.5 S 6 7 3 4 1013.0 1012.4 0.0
27/06:00am 7.6 5.9 6.1 90 0.7 SSE 4 7 2 4 1013.2 1012.5 0.0
27/05:30am 7.3 5.2 5.8 90 0.7 SSE 6 7 3 4 1013.2 1012.5 0.0
27/05:00am 7.1 4.7 5.3 88 0.8 SSE 7 11 4 6 1013.0 1012.4 0.0
27/04:30am 7.8 5.5 5.6 86 1.0 SSE 7 9 4 5 1013.2 1012.5 0.0
27/04:00am 8.8 6.6 6.4 85 1.1 SSE 7 11 4 6 1013.3 1012.6 0.0
27/03:30am 9.0 6.1 6.3 83 1.3 SSE 11 15 6 8 1013.2 1012.5 0.0
27/03:00am 9.4 6.2 6.7 83 1.3 SSE 13 17 7 9 1013.3 1012.6 0.0
27/02:30am 9.8 6.5 6.5 80 1.6 SSE 13 17 7 9 1013.3 1012.6 0.0
27/02:00am 10.4 6.8 6.7 78 1.8 SSE 15 20 8 11 1013.6 1012.9 0.0
27/01:30am 10.7 6.7 6.8 77 1.9 SSE 17 26 9 14 1013.7 1013.0 0.0
27/01:00am 11.1 6.6 6.8 75 2.1 SSE 20 28 11 15 1013.8 1013.1 0.0
27/12:30am 11.5 6.5 6.6 72 2.3 SSE 22 30 12 16 1014.1 1013.4 0.0
27/12:00am 11.7 6.7 6.4 70 2.5 SSE 22 30 12 16 1014.3 1013.6 0.0
 
Date/Time
EDT
Temp
°C
App
Temp
°C
Dew
Point
°C
Rel
Hum
%
Delta-T
°C
Wind Press
QNH
hPa
Press
MSL
hPa
Rain since
9am
mm
Dir  Spd
km/h
Gust
km/h
Spd
kts
Gust
kts
26/11:30pm 12.2 6.9 6.7 69 2.6 SSE 24 33 13 18 1014.6 1013.9 0.0
26/11:00pm 12.6 6.9 6.6 67 2.9 SSE 26 33 14 18 1014.4 1013.7 0.0
26/10:30pm 13.1 7.0 6.7 65 3.1 SSE 28 37 15 20 1014.4 1013.7 0.0
26/10:00pm 13.9 8.3 7.0 63 3.4 SSE 26 35 14 19 1014.3 1013.6 0.0
26/09:30pm 14.8 9.1 6.6 58 4.0 SSE 26 33 14 18 1014.2 1013.5 0.0
26/09:00pm 15.8 11.2 6.3 53 4.7 SSE 20 26 11 14 1013.9 1013.2 0.0
26/08:30pm 16.9 12.3 6.4 50 5.2 SSE 20 28 11 15 1013.7 1013.0 0.0
26/08:00pm 17.9 12.4 6.1 46 5.9 SSE 24 32 13 17 1013.3 1012.6 0.0
26/07:30pm 19.4 14.3 5.8 41 6.8 SSE 22 32 12 17 1012.7 1012.1 0.0
26/07:00pm 20.5 14.5 5.3 37 7.6 S 26 33 14 18 1012.5 1011.9 0.0
26/06:30pm 21.2 15.5 5.1 35 8.0 SSE 24 33 13 18 1012.4 1011.8 0.0
26/06:00pm 22.2 17.6 5.6 34 8.4 S 19 33 10 18 1012.3 1011.7 0.0
26/05:30pm 21.8 16.8 4.8 33 8.4 S 20 30 11 16 1012.3 1011.7 0.0
26/05:00pm 21.8 16.8 4.8 33 8.4 S 20 32 11 17 1012.5 1011.9 0.0
26/04:30pm 22.5 18.2 5.4 33 8.6 SSE 17 24 9 13 1012.6 1012.0 0.0
26/04:00pm 22.6 18.0 5.5 33 8.7 S 19 28 10 15 1012.8 1012.2 0.0
26/03:30pm 21.0 16.7 5.4 36 7.8 SSE 17 28 9 15 1013.4 1012.7 0.0
26/03:00pm 21.5 16.4 5.8 36 7.9 S 22 33 12 18 1013.8 1013.1 0.0
26/02:30pm 20.2 16.5 6.5 41 7.0 S 15 26 8 14 1014.2 1013.5 0.0
26/02:00pm 19.4 16.0 5.8 41 6.8 S 13 26 7 14 1014.2 1013.5 0.0
26/01:30pm 20.0 15.9 6.4 41 6.9 SSE 17 28 9 15 1014.6 1013.9 0.0
26/01:00pm 18.1 13.6 6.0 45 6.0 S 19 33 10 18 1015.0 1014.3 0.0
26/12:30pm 17.2 13.1 6.4 49 5.4 S 17 30 9 16 1015.4 1014.7 0.0
26/12:00pm 17.6 13.2 6.5 48 5.5 SSE 19 30 10 16 1015.9 1015.2 0.0
26/11:30am 18.2 13.6 5.4 43 6.3 SE 19 32 10 17 1016.1 1015.4 0.0
26/11:00am 16.8 11.6 5.4 47 5.5 SSE 22 33 12 18 1016.0 1015.3 0.0
26/10:30am 16.5 11.5 6.3 51 5.0 SSE 22 35 12 19 1015.7 1015.0 0.0
26/10:00am 15.5 11.0 6.0 53 4.6 SSE 19 28 10 15 1015.9 1015.2 0.0
26/09:30am 14.5 10.0 6.8 60 3.8 S 20 28 11 15 1015.9 1015.2 0.0
26/09:00am 13.5 9.5 6.8 64 3.3 S 17 24 9 13 1015.5 1014.8 0.2
26/08:30am 11.8 10.2 7.9 77 1.9 SW 6 9 3 5 1015.6 1014.9 0.2
26/08:00am 10.9 9.2 7.4 79 1.7 SSW 6 11 3 6 1015.4 1014.7 0.2
26/07:30am 10.6 10.1 7.7 82 1.4 CALM 0 0 0 0 1015.1 1014.4 0.2
26/07:00am 10.6 8.7 7.5 81 1.5 SW 7 13 4 7 1014.6 1013.9 0.2
26/06:30am 10.4 8.1 7.5 82 1.4 SSW 9 11 5 6 1014.4 1013.7 0.2
26/06:00am 9.8 9.3 7.7 87 1.0 CALM 0 7 0 4 1014.3 1013.6 0.2
26/05:30am 10.3 8.4 7.5 83 1.4 SSW 7 9 4 5 1014.0 1013.3 0.2
26/05:00am 10.9 8.7 8.0 82 1.4 SW 9 11 5 6 1014.0 1013.3 0.2
26/04:30am 10.8 9.2 8.7 87 1.0 SSW 7 11 4 6 1014.1 1013.4 0.2
26/04:00am 10.4 10.2 9.0 91 0.7 CALM 0 0 0 0 1014.4 1013.7 0.2
26/03:30am 10.1 9.9 8.9 92 0.6 CALM 0 0 0 0 1014.2 1013.5 0.2
26/03:00am 9.5 9.1 8.3 92 0.6 CALM 0 0 0 0 1014.0 1013.3 0.2
26/02:30am 8.9 8.4 7.8 93 0.5 CALM 0 0 0 0 1014.0 1013.3 0.2
26/02:00am 9.4 7.8 7.8 90 0.8 SSW 6 9 3 5 1014.0 1013.3 0.2
26/01:30am 10.6 8.6 8.5 87 1.0 SSW 9 13 5 7 1014.0 1013.3 0.2
26/01:00am 11.0 9.1 8.9 87 1.1 SSW 9 13 5 7 1014.1 1013.4 0.2
26/12:30am 11.3 9.0 9.0 86 1.2 SSW 11 13 6 7 1014.3 1013.6 0.2
26/12:00am 11.8 9.6 9.5 86 1.2 S 11 13 6 7 1014.3 1013.6 0.2
 
Date/Time
EDT
Temp
°C
App
Temp
°C
Dew
Point
°C
Rel
Hum
%
Delta-T
°C
Wind Press
QNH
hPa
Press
MSL
hPa
Rain since
9am
mm
Dir  Spd
km/h
Gust
km/h
Spd
kts
Gust
kts
25/11:30pm 12.8 10.4 10.2 84 1.4 SSW 13 19 7 10 1014.2 1013.5 0.2
25/11:00pm 13.1 10.8 10.6 85 1.3 S 13 19 7 10 1014.0 1013.3 0.2
25/10:30pm 13.3 12.0 11.2 87 1.1 S 9 13 5 7 1014.0 1013.3 0.2
25/10:00pm 13.3 10.0 10.8 85 1.3 S 19 26 10 14 1013.9 1013.2 0.2
25/09:30pm 13.9 11.2 11.6 86 1.2 S 17 28 9 15 1013.7 1013.0 0.2
25/09:00pm 14.3 12.6 12.3 88 1.1 SSW 13 24 7 13 1013.4 1012.7 0.2
25/08:30pm 15.1 13.3 12.1 82 1.6 SSW 13 20 7 11 1012.9 1012.3 0.2
25/08:00pm 15.3 13.9 12.1 81 1.8 SSW 11 24 6 13 1012.6 1012.0 0.2
25/07:30pm 15.9 15.0 12.6 81 1.8 W 9 15 5 8 1012.2 1011.6 0.2
25/07:00pm 16.1 15.2 13.6 85 1.4 WSW 11 20 6 11 1012.2 1011.6 0.2

Other formats

Comma delimited format used in spreadsheet applications
http://www.bom.gov.au/fwo/IDV60801/IDV60801.95827.axf

JavaScript Object Notation format (JSON) in row-major order
http://www.bom.gov.au/fwo/IDV60801/IDV60801.95827.json

Data quality

Most of these data are generated automatically and are frequently updated. Quality checks on data are not normally performed. It is possible for incorrect values to appear. Refer to information at About Latest Weather Observations and please check the disclaimer before using these data.